Time;durP1;ratioP1;P1;durP2;ratioP2;P2;SDS_P1;SDS_P2;PMS_P1;PMS_P2;Temp;Humidity;BMP_temperature;BMP_pressure;BME280_temperature;BME280_humidity;BME280_pressure;Samples;Min_cycle;Max_cycle;Signal;HPM_P1;HPM_P2
2023/11/04 00:01:03;;;;;;;3.22;1.20;;;15.50;90.60;;;;;;5074947;28;20107;-81
2023/11/04 00:03:28;;;;;;;4.30;1.40;;;15.50;90.60;;;;;;5072978;28;20105;-82
2023/11/04 00:05:54;;;;;;;5.05;1.50;;;15.50;90.60;;;;;;5074741;28;20035;-81
2023/11/04 00:08:19;;;;;;;3.20;1.40;;;15.50;90.50;;;;;;5073648;28;20040;-81
2023/11/04 00:10:45;;;;;;;5.07;1.48;;;15.50;90.50;;;;;;5073402;28;20017;-82
2023/11/04 00:13:10;;;;;;;4.60;1.30;;;15.40;90.50;;;;;;5072068;28;20078;-81
2023/11/04 00:15:36;;;;;;;6.57;1.88;;;15.40;90.60;;;;;;5072488;28;20028;-82
2023/11/04 00:18:02;;;;;;;5.22;1.65;;;15.40;90.60;;;;;;5072526;28;20039;-81
2023/11/04 00:20:27;;;;;;;3.78;1.40;;;15.40;90.60;;;;;;5072525;28;20481;-81
2023/11/04 00:22:53;;;;;;;4.03;1.25;;;15.40;90.60;;;;;;5073521;28;20028;-81
2023/11/04 00:25:19;;;;;;;3.38;1.25;;;15.40;90.60;;;;;;5074206;28;20123;-81
2023/11/04 00:27:44;;;;;;;4.07;1.27;;;15.40;90.60;;;;;;5074043;28;20048;-81
2023/11/04 00:30:10;;;;;;;3.47;1.30;;;15.30;90.60;;;;;;5072287;28;20029;-82
2023/11/04 00:32:36;;;;;;;4.85;1.65;;;15.30;90.60;;;;;;5074018;28;20024;-81
2023/11/04 00:35:03;;;;;;;4.85;1.50;;;15.30;90.80;;;;;;5072617;28;20034;-82
2023/11/04 00:37:29;;;;;;;3.75;1.20;;;15.30;90.60;;;;;;5072726;28;20028;-81
2023/11/04 00:39:54;;;;;;;3.95;1.50;;;15.30;90.60;;;;;;5072351;28;20724;-81
2023/11/04 00:42:20;;;;;;;6.05;1.40;;;15.30;90.70;;;;;;5072753;28;20066;-83
2023/11/04 00:44:45;;;;;;;3.60;1.30;;;15.30;90.60;;;;;;5072868;28;20037;-81
2023/11/04 00:47:11;;;;;;;3.88;1.10;;;15.30;90.60;;;;;;5072651;28;20044;-81
2023/11/04 00:49:37;;;;;;;3.78;1.40;;;15.30;90.70;;;;;;5074764;28;20533;-81
2023/11/04 00:52:03;;;;;;;3.53;1.08;;;15.30;90.60;;;;;;5076549;28;20036;-82
2023/11/04 00:54:29;;;;;;;3.13;1.20;;;15.30;90.60;;;;;;5076450;28;20024;-82
2023/11/04 00:56:55;;;;;;;3.00;1.20;;;15.30;90.70;;;;;;5078363;28;20055;-81
2023/11/04 00:59:21;;;;;;;2.95;1.00;;;15.30;90.70;;;;;;5078067;28;20482;-82
2023/11/04 01:01:47;;;;;;;3.50;1.17;;;15.30;90.60;;;;;;5076946;28;20033;-82
2023/11/04 01:04:13;;;;;;;4.25;1.27;;;15.30;90.50;;;;;;5076620;28;20029;-82
2023/11/04 01:06:38;;;;;;;3.88;1.15;;;15.30;90.50;;;;;;5076900;28;20028;-82
2023/11/04 01:09:04;;;;;;;2.92;1.00;;;15.30;90.50;;;;;;5076773;28;20025;-81
2023/11/04 01:11:30;;;;;;;3.65;1.40;;;15.30;90.40;;;;;;5076930;28;20021;-81
2023/11/04 01:13:55;;;;;;;2.58;1.05;;;15.40;90.40;;;;;;5076793;28;20025;-81
2023/11/04 01:16:21;;;;;;;3.38;1.10;;;15.40;90.40;;;;;;5076941;28;20035;-81
2023/11/04 01:18:47;;;;;;;4.38;1.45;;;15.40;90.40;;;;;;5077600;28;20490;-82
2023/11/04 01:21:12;;;;;;;5.22;1.30;;;15.40;90.40;;;;;;5077072;28;20033;-82
2023/11/04 01:23:38;;;;;;;2.92;1.23;;;15.30;90.30;;;;;;5076945;28;20039;-81
2023/11/04 01:26:03;;;;;;;3.55;1.10;;;15.30;90.30;;;;;;5076194;28;20036;-82
2023/11/04 01:28:29;;;;;;;2.95;1.10;;;15.30;90.30;;;;;;5076030;28;20028;-81
2023/11/04 01:30:54;;;;;;;3.70;1.33;;;15.30;90.30;;;;;;5076256;28;20029;-82
2023/11/04 01:33:20;;;;;;;3.88;1.38;;;15.30;90.30;;;;;;5075600;28;20043;-80
2023/11/04 01:35:46;;;;;;;3.20;1.15;;;15.30;90.30;;;;;;5076078;28;20577;-81
2023/11/04 01:38:11;;;;;;;3.80;1.58;;;15.30;90.30;;;;;;5075656;28;20035;-80
2023/11/04 01:40:37;;;;;;;6.32;1.70;;;15.30;90.40;;;;;;5075471;28;20547;-82
2023/11/04 01:43:02;;;;;;;3.47;1.08;;;15.30;90.30;;;;;;5075139;28;20037;-82
2023/11/04 01:45:28;;;;;;;4.15;1.15;;;15.20;90.30;;;;;;5077624;28;20090;-82
2023/11/04 01:47:53;;;;;;;3.90;1.20;;;15.20;90.30;;;;;;5075660;28;20016;-82
2023/11/04 01:50:20;;;;;;;3.15;1.23;;;15.20;90.30;;;;;;5077022;28;20028;-81
2023/11/04 01:52:46;;;;;;;3.42;1.10;;;15.20;90.40;;;;;;5077109;28;20025;-82
2023/11/04 01:55:13;;;;;;;3.92;1.40;;;15.20;90.40;;;;;;5075820;28;20036;-82
2023/11/04 01:57:38;;;;;;;3.65;1.42;;;15.20;90.40;;;;;;5076164;28;20075;-81
2023/11/04 02:00:05;;;;;;;2.67;1.10;;;15.20;90.40;;;;;;5075117;28;20039;-82
2023/11/04 02:02:31;;;;;;;2.35;0.98;;;15.20;90.40;;;;;;5077325;28;20028;-82
2023/11/04 02:04:57;;;;;;;3.58;1.13;;;15.20;90.40;;;;;;5075604;28;20035;-82
2023/11/04 02:07:25;;;;;;;3.67;1.30;;;15.20;90.40;;;;;;5075296;28;20028;-82
2023/11/04 02:09:51;;;;;;;3.33;1.27;;;15.20;90.40;;;;;;5075656;28;20377;-82
2023/11/04 02:12:17;;;;;;;2.70;0.90;;;15.20;90.40;;;;;;5077371;28;20024;-81
2023/11/04 02:14:50;;;;;;;3.97;1.10;;;15.20;90.50;;;;;;5075926;28;20035;-82
2023/11/04 02:17:16;;;;;;;3.13;1.00;;;15.20;90.50;;;;;;5077532;28;20452;-81
2023/11/04 02:19:42;;;;;;;3.45;0.98;;;15.20;90.40;;;;;;5076314;28;20056;-82
2023/11/04 02:22:07;;;;;;;3.70;1.10;;;15.20;90.40;;;;;;5076128;28;20038;-82
2023/11/04 02:24:33;;;;;;;2.92;1.10;;;15.30;90.50;;;;;;5075223;28;20032;-81
2023/11/04 02:26:58;;;;;;;3.05;1.00;;;15.20;90.40;;;;;;5075105;28;20077;-82
2023/11/04 02:29:24;;;;;;;4.22;1.35;;;15.20;90.40;;;;;;5074812;28;20029;-81
2023/11/04 02:31:49;;;;;;;3.55;1.00;;;15.30;90.30;;;;;;5075018;28;20028;-81
2023/11/04 02:34:15;;;;;;;3.70;1.55;;;15.30;90.30;;;;;;5074683;28;20163;-82
2023/11/04 02:36:40;;;;;;;4.30;1.20;;;15.20;90.30;;;;;;5075176;28;20490;-82
2023/11/04 02:39:06;;;;;;;3.42;1.20;;;15.30;90.30;;;;;;5076424;28;20381;-81
2023/11/04 02:41:32;;;;;;;3.70;1.05;;;15.20;90.20;;;;;;5076472;28;20021;-82
2023/11/04 02:43:58;;;;;;;2.28;1.08;;;15.20;90.20;;;;;;5075019;28;20036;-81
2023/11/04 02:46:24;;;;;;;3.35;0.90;;;15.20;90.20;;;;;;5075735;28;20032;-82
2023/11/04 02:48:49;;;;;;;2.47;1.00;;;15.20;90.30;;;;;;5073684;28;20470;-82
2023/11/04 02:51:15;;;;;;;2.08;0.80;;;15.20;90.20;;;;;;5074046;28;20111;-82
2023/11/04 02:53:40;;;;;;;3.05;1.02;;;15.20;90.30;;;;;;5074079;28;20116;-82
2023/11/04 02:56:06;;;;;;;3.72;1.20;;;15.20;90.30;;;;;;5073673;28;20020;-82
2023/11/04 02:58:32;;;;;;;3.78;0.77;;;15.20;90.30;;;;;;5075647;28;20074;-83
2023/11/04 03:00:58;;;;;;;3.30;1.10;;;15.20;90.30;;;;;;5073736;28;20612;-82
2023/11/04 03:03:23;;;;;;;2.97;1.05;;;15.20;90.30;;;;;;5076194;28;20671;-83
2023/11/04 03:05:49;;;;;;;3.33;1.13;;;15.20;90.30;;;;;;5075012;28;20044;-82
2023/11/04 03:08:14;;;;;;;2.47;1.17;;;15.20;90.30;;;;;;5074858;28;20044;-82
2023/11/04 03:10:40;;;;;;;2.38;0.90;;;15.10;90.30;;;;;;5073748;28;20039;-82
2023/11/04 03:13:05;;;;;;;2.53;0.90;;;15.20;90.40;;;;;;5074631;28;20030;-82
2023/11/04 03:15:31;;;;;;;1.83;0.80;;;15.10;90.40;;;;;;5067643;28;20125;-82
2023/11/04 03:17:56;;;;;;;2.70;1.13;;;15.10;90.40;;;;;;5074941;28;20670;-82
2023/11/04 03:20:22;;;;;;;1.92;0.85;;;15.10;90.40;;;;;;5072934;28;20029;-82
2023/11/04 03:22:47;;;;;;;2.15;1.13;;;15.10;90.40;;;;;;5073943;28;20028;-82
2023/11/04 03:25:15;;;;;;;2.25;0.98;;;15.10;90.40;;;;;;5073856;28;20032;-82
2023/11/04 03:27:41;;;;;;;2.08;0.93;;;15.10;90.40;;;;;;5073957;28;20025;-82
2023/11/04 03:30:08;;;;;;;1.67;0.80;;;15.10;90.50;;;;;;5073178;28;20062;-82
2023/11/04 03:32:33;;;;;;;2.22;0.98;;;15.10;90.50;;;;;;5075799;28;20036;-82
2023/11/04 03:34:59;;;;;;;2.03;0.82;;;15.10;90.40;;;;;;5074190;28;20474;-81
2023/11/04 03:37:24;;;;;;;1.20;0.77;;;15.10;90.40;;;;;;5074525;28;20016;-82
2023/11/04 03:39:52;;;;;;;2.13;0.90;;;15.20;90.40;;;;;;5073638;28;20063;-83
2023/11/04 03:42:18;;;;;;;2.22;0.80;;;15.20;90.40;;;;;;5073856;28;20028;-82
2023/11/04 03:44:43;;;;;;;2.15;0.90;;;15.20;90.40;;;;;;5073618;28;20033;-82
2023/11/04 03:47:09;;;;;;;2.13;0.90;;;15.20;90.30;;;;;;5074243;28;20027;-82
2023/11/04 03:49:34;;;;;;;1.95;0.80;;;15.20;90.30;;;;;;5074402;28;20362;-83
2023/11/04 03:52:00;;;;;;;3.10;0.90;;;15.20;90.30;;;;;;5073815;28;20046;-82
2023/11/04 03:54:26;;;;;;;2.53;1.00;;;15.20;90.20;;;;;;5073849;28;20021;-82
2023/11/04 03:56:51;;;;;;;1.42;0.80;;;15.20;90.20;;;;;;5073887;28;20517;-82
2023/11/04 03:59:17;;;;;;;1.67;0.90;;;15.10;90.20;;;;;;5074855;28;20070;-82
2023/11/04 04:01:42;;;;;;;2.08;0.80;;;15.10;90.20;;;;;;5074295;28;20028;-82
2023/11/04 04:04:08;;;;;;;1.42;0.80;;;15.10;90.20;;;;;;5072082;28;20036;-82
2023/11/04 04:06:34;;;;;;;1.42;0.70;;;15.10;90.20;;;;;;5071803;28;20028;-81
2023/11/04 04:08:59;;;;;;;1.70;0.70;;;15.10;90.20;;;;;;5071947;28;20028;-82
2023/11/04 04:11:25;;;;;;;2.20;0.80;;;15.10;90.20;;;;;;5072889;28;20486;-82
2023/11/04 04:13:50;;;;;;;1.58;0.73;;;15.10;90.50;;;;;;5071734;28;20485;-81
2023/11/04 04:16:16;;;;;;;1.95;0.85;;;15.10;90.20;;;;;;5071613;28;20651;-82
2023/11/04 04:18:42;;;;;;;2.28;0.65;;;15.10;90.20;;;;;;5071245;28;20443;-82
2023/11/04 04:21:07;;;;;;;2.22;0.70;;;15.00;90.20;;;;;;5071328;28;20028;-82
2023/11/04 04:23:32;;;;;;;2.17;0.90;;;15.00;90.30;;;;;;5071675;28;20127;-82
2023/11/04 04:25:58;;;;;;;2.38;1.10;;;15.10;90.30;;;;;;5072845;28;20032;-82
2023/11/04 04:28:23;;;;;;;2.28;0.80;;;15.00;90.20;;;;;;5072260;28;20474;-82
2023/11/04 04:30:49;;;;;;;1.73;0.73;;;15.00;90.20;;;;;;5073668;28;20024;-82
2023/11/04 04:33:15;;;;;;;1.38;0.77;;;15.10;90.30;;;;;;5073134;28;20029;-82
2023/11/04 04:35:41;;;;;;;1.48;0.70;;;15.00;90.20;;;;;;5072699;28;20025;-82
2023/11/04 04:38:07;;;;;;;2.28;0.90;;;15.00;90.20;;;;;;5072302;28;20016;-82
2023/11/04 04:40:32;;;;;;;1.40;0.90;;;15.00;90.20;;;;;;5073878;28;20091;-82
2023/11/04 04:42:58;;;;;;;0.88;0.60;;;15.10;90.30;;;;;;5072607;28;20125;-81
2023/11/04 04:45:25;;;;;;;1.88;0.77;;;15.00;90.30;;;;;;5072815;28;20036;-82
2023/11/04 04:47:50;;;;;;;2.00;0.80;;;15.00;90.30;;;;;;5074116;28;20032;-82
2023/11/04 04:50:16;;;;;;;1.70;0.68;;;15.00;90.30;;;;;;5074455;28;20021;-82
2023/11/04 04:52:42;;;;;;;1.92;0.65;;;15.10;90.30;;;;;;5074160;28;20028;-82
2023/11/04 04:55:07;;;;;;;1.27;0.57;;;15.10;90.30;;;;;;5072692;28;20413;-83
2023/11/04 04:57:35;;;;;;;2.00;0.73;;;15.10;90.30;;;;;;5073041;28;20028;-82
2023/11/04 05:00:01;;;;;;;1.83;0.80;;;15.10;90.30;;;;;;5074706;28;20024;-82
2023/11/04 05:02:27;;;;;;;2.90;0.75;;;15.10;90.20;;;;;;5073971;28;20334;-82
2023/11/04 05:04:52;;;;;;;2.63;0.90;;;15.10;90.10;;;;;;5075628;28;20410;-82
2023/11/04 05:07:18;;;;;;;1.38;0.63;;;15.10;90.10;;;;;;5074760;28;20394;-82
2023/11/04 05:09:43;;;;;;;1.42;0.70;;;15.10;90.00;;;;;;5074299;28;20397;-82
2023/11/04 05:12:09;;;;;;;2.55;0.77;;;15.10;90.00;;;;;;5072973;28;20501;-82
2023/11/04 05:14:34;;;;;;;1.75;0.80;;;15.10;90.00;;;;;;5067322;28;20016;-82
2023/11/04 05:17:00;;;;;;;1.17;0.65;;;15.10;90.00;;;;;;5065397;28;20029;-83
2023/11/04 05:19:25;;;;;;;2.42;0.77;;;15.10;90.00;;;;;;5071761;28;20051;-82
2023/11/04 05:21:51;;;;;;;2.15;0.80;;;15.10;90.00;;;;;;5074217;28;20033;-82
2023/11/04 05:24:17;;;;;;;2.00;0.60;;;15.00;90.00;;;;;;5072981;28;20028;-82
2023/11/04 05:26:42;;;;;;;0.90;0.60;;;15.20;90.10;;;;;;5068717;28;20021;-81
2023/11/04 05:29:11;;;;;;;1.20;0.60;;;15.00;90.00;;;;;;5052267;28;20040;-82
2023/11/04 05:31:36;;;;;;;1.40;0.80;;;15.00;90.00;;;;;;5052125;28;20458;-82
2023/11/04 05:34:02;;;;;;;1.17;0.60;;;15.00;90.10;;;;;;5051999;28;20025;-82
2023/11/04 05:36:28;;;;;;;2.95;1.00;;;15.00;90.10;;;;;;5055830;28;20024;-82
2023/11/04 05:38:53;;;;;;;0.95;0.70;;;15.00;90.10;;;;;;5056136;28;20032;-82
2023/11/04 05:41:19;;;;;;;1.73;0.70;;;15.00;90.10;;;;;;5057649;28;20028;-82
2023/11/04 05:43:45;;;;;;;1.52;0.70;;;15.00;90.10;;;;;;5057406;28;20410;-83
2023/11/04 05:46:11;;;;;;;1.90;0.52;;;15.00;90.10;;;;;;5058000;28;20032;-83
2023/11/04 05:48:37;;;;;;;2.22;0.80;;;15.00;90.10;;;;;;5062497;28;20029;-83
2023/11/04 05:51:04;;;;;;;1.75;0.80;;;15.00;90.20;;;;;;5059161;28;20507;-84
2023/11/04 05:53:29;;;;;;;2.75;1.00;;;15.00;90.10;;;;;;5060156;28;20060;-82
2023/11/04 05:55:56;;;;;;;1.63;0.70;;;15.00;90.20;;;;;;5058508;28;20029;-82
2023/11/04 05:58:21;;;;;;;1.30;0.63;;;15.00;90.10;;;;;;5080214;28;20059;-83
2023/11/04 06:00:47;;;;;;;1.67;0.80;;;15.00;90.20;;;;;;5081607;28;20024;-83
2023/11/04 06:03:13;;;;;;;1.80;0.80;;;15.00;90.20;;;;;;5079352;28;20034;-82
2023/11/04 06:05:38;;;;;;;1.75;0.70;;;15.00;90.20;;;;;;5078748;28;20024;-83
2023/11/04 06:08:04;;;;;;;1.13;0.60;;;15.00;90.10;;;;;;5079775;28;20029;-82
2023/11/04 06:10:29;;;;;;;1.35;0.60;;;15.10;90.20;;;;;;5080040;28;20029;-83
2023/11/04 06:12:55;;;;;;;1.38;0.63;;;15.00;90.20;;;;;;5082585;28;20206;-82
2023/11/04 06:15:20;;;;;;;1.75;0.70;;;15.00;90.20;;;;;;5078906;28;20024;-83
2023/11/04 06:17:46;;;;;;;1.73;0.70;;;15.10;90.10;;;;;;5078629;28;20028;-82
2023/11/04 06:20:12;;;;;;;1.95;0.80;;;15.00;90.00;;;;;;5078045;28;20542;-81
2023/11/04 06:22:37;;;;;;;1.33;0.65;;;15.10;90.00;;;;;;5075643;28;20071;-80
2023/11/04 06:25:03;;;;;;;2.50;0.85;;;15.10;90.00;;;;;;5075048;28;20021;-81
2023/11/04 06:27:29;;;;;;;1.65;0.70;;;15.10;90.00;;;;;;5076259;28;20055;-82
2023/11/04 06:29:55;;;;;;;2.03;0.82;;;15.00;89.90;;;;;;5075991;28;20048;-81
2023/11/04 06:32:20;;;;;;;2.28;0.75;;;15.10;89.90;;;;;;5077808;28;20040;-81
2023/11/04 06:34:46;;;;;;;2.38;0.57;;;15.00;90.10;;;;;;5077607;28;20017;-81
2023/11/04 06:37:12;;;;;;;2.08;0.80;;;15.00;89.90;;;;;;5075556;28;20028;-82
2023/11/04 06:39:37;;;;;;;1.77;0.70;;;15.00;89.90;;;;;;5075915;28;20036;-81
2023/11/04 06:42:03;;;;;;;2.03;0.63;;;15.00;90.00;;;;;;5074904;28;20024;-82
2023/11/04 06:44:29;;;;;;;1.02;0.70;;;15.00;90.00;;;;;;5078137;28;20482;-82
2023/11/04 06:46:54;;;;;;;0.60;0.50;;;15.00;90.00;;;;;;5075425;28;20039;-82
2023/11/04 06:49:20;;;;;;;0.73;0.60;;;15.00;90.00;;;;;;5076219;28;20029;-80
2023/11/04 06:51:46;;;;;;;1.92;0.70;;;15.00;90.00;;;;;;5077519;28;20025;-83
2023/11/04 06:54:11;;;;;;;1.50;0.70;;;14.90;89.90;;;;;;5072747;28;20075;-83
2023/11/04 06:56:38;;;;;;;0.98;0.60;;;14.90;90.00;;;;;;5072874;28;20028;-82
2023/11/04 06:59:04;;;;;;;1.38;0.60;;;15.00;90.00;;;;;;5073435;28;20028;-82
2023/11/04 07:01:30;;;;;;;2.15;0.73;;;15.00;90.00;;;;;;5076287;28;20478;-84
2023/11/04 07:03:55;;;;;;;1.58;0.63;;;14.90;90.00;;;;;;5075938;28;20086;-82
2023/11/04 07:06:21;;;;;;;1.25;0.60;;;14.90;90.00;;;;;;5073382;28;20028;-81
2023/11/04 07:08:47;;;;;;;0.95;0.52;;;14.90;90.00;;;;;;5075490;28;20070;-81
2023/11/04 07:11:13;;;;;;;1.35;0.60;;;14.90;90.00;;;;;;5078724;28;20402;-82
2023/11/04 07:13:39;;;;;;;1.50;0.50;;;14.90;89.90;;;;;;5079551;28;20024;-83
2023/11/04 07:16:05;;;;;;;1.10;0.60;;;14.90;90.00;;;;;;5080411;28;20021;-84
2023/11/04 07:18:31;;;;;;;1.23;0.65;;;14.90;90.10;;;;;;5079962;28;20063;-82
2023/11/04 07:20:59;;;;;;;1.10;0.60;;;15.00;90.10;;;;;;5079129;28;20032;-83
2023/11/04 07:23:28;;;;;;;1.67;0.70;;;15.00;90.10;;;;;;5078830;28;20096;-83
2023/11/04 07:25:53;;;;;;;0.80;0.47;;;15.00;90.00;;;;;;5079189;28;20044;-81
2023/11/04 07:28:19;;;;;;;0.90;0.65;;;15.00;90.00;;;;;;5078419;28;20040;-82
2023/11/04 07:30:45;;;;;;;1.35;0.60;;;15.00;90.10;;;;;;5080599;28;20056;-80
2023/11/04 07:33:10;;;;;;;1.60;0.50;;;15.00;90.00;;;;;;5078384;28;20021;-82
2023/11/04 07:35:36;;;;;;;1.75;0.70;;;15.00;89.90;;;;;;5078729;28;20032;-83
2023/11/04 07:38:02;;;;;;;0.70;0.50;;;15.00;89.80;;;;;;5077973;28;20546;-83
2023/11/04 07:40:28;;;;;;;1.77;0.73;;;15.00;89.70;;;;;;5078625;28;20024;-83
2023/11/04 07:42:53;;;;;;;0.95;0.50;;;15.00;89.70;;;;;;5078292;28;20028;-82
2023/11/04 07:45:19;;;;;;;1.60;0.70;;;15.00;89.70;;;;;;5078903;28;20091;-83
2023/11/04 07:47:45;;;;;;;1.02;0.40;;;15.00;89.60;;;;;;5078778;28;20043;-82
2023/11/04 07:50:12;;;;;;;0.95;0.52;;;15.00;89.60;;;;;;5078224;28;20033;-82
2023/11/04 07:52:41;;;;;;;1.05;0.60;;;15.00;89.60;;;;;;5077743;28;20024;-83
2023/11/04 07:55:08;;;;;;;1.38;0.50;;;15.00;89.60;;;;;;5079543;28;20013;-81
2023/11/04 07:57:38;;;;;;;0.63;0.55;;;14.90;89.60;;;;;;5079932;28;20575;-83
2023/11/04 08:00:07;;;;;;;1.05;0.50;;;15.00;89.70;;;;;;5081050;28;20502;-82
2023/11/04 08:02:35;;;;;;;1.60;0.70;;;15.00;89.90;;;;;;5079825;28;20402;-82
2023/11/04 08:05:00;;;;;;;0.98;0.57;;;14.90;89.80;;;;;;5080759;28;20116;-82
2023/11/04 08:07:27;;;;;;;2.05;0.50;;;14.90;89.80;;;;;;5078745;28;20055;-83
2023/11/04 08:09:53;;;;;;;0.95;0.60;;;14.90;89.70;;;;;;5079398;28;20024;-81
2023/11/04 08:12:19;;;;;;;1.92;0.60;;;14.90;89.50;;;;;;5079368;28;20031;-82
2023/11/04 08:14:45;;;;;;;1.25;0.65;;;14.90;89.60;;;;;;5078700;28;20170;-82
2023/11/04 08:17:10;;;;;;;0.98;0.60;;;14.90;89.70;;;;;;5080218;28;20044;-83
2023/11/04 08:19:36;;;;;;;1.35;0.65;;;14.90;89.70;;;;;;5080500;28;20028;-81
2023/11/04 08:22:01;;;;;;;1.60;0.77;;;15.00;89.70;;;;;;5078544;28;20152;-83
2023/11/04 08:24:27;;;;;;;2.30;0.70;;;14.90;89.60;;;;;;5078553;28;20029;-82
2023/11/04 08:26:53;;;;;;;0.65;0.60;;;14.90;89.70;;;;;;5079868;28;20024;-83
2023/11/04 08:29:18;;;;;;;1.83;0.63;;;14.90;89.70;;;;;;5080232;28;20078;-82
2023/11/04 08:31:44;;;;;;;0.70;0.40;;;14.90;89.90;;;;;;5078430;28;20025;-83
2023/11/04 08:34:10;;;;;;;1.27;0.60;;;14.90;90.00;;;;;;5078195;28;20021;-83
2023/11/04 08:36:35;;;;;;;1.42;0.60;;;14.90;90.00;;;;;;5078584;28;20093;-82
2023/11/04 08:39:01;;;;;;;1.00;0.60;;;14.90;90.00;;;;;;5077406;28;20693;-83
2023/11/04 08:41:26;;;;;;;1.00;0.55;;;14.90;89.90;;;;;;5079801;28;20032;-83
2023/11/04 08:43:52;;;;;;;0.85;0.50;;;14.90;89.70;;;;;;5079553;28;20043;-82
2023/11/04 08:46:18;;;;;;;1.23;0.52;;;15.00;89.60;;;;;;5078273;28;20024;-81
2023/11/04 08:48:47;;;;;;;1.55;0.63;;;15.00;89.60;;;;;;5078014;28;20383;-83
2023/11/04 08:51:12;;;;;;;1.08;0.63;;;15.10;89.50;;;;;;5078237;28;20024;-83
2023/11/04 08:53:38;;;;;;;1.48;0.60;;;15.00;89.20;;;;;;5079644;28;20120;-82
2023/11/04 08:56:05;;;;;;;0.65;0.47;;;15.00;88.90;;;;;;5078262;28;20036;-82
2023/11/04 08:58:31;;;;;;;0.95;0.60;;;15.10;88.90;;;;;;5077922;28;20024;-82
2023/11/04 09:00:57;;;;;;;1.15;0.50;;;15.10;89.10;;;;;;5077891;28;20568;-82
2023/11/04 09:03:23;;;;;;;0.52;0.40;;;15.10;89.00;;;;;;5077990;28;20032;-81
2023/11/04 09:05:49;;;;;;;0.93;0.55;;;15.20;88.70;;;;;;5079325;28;20021;-83
2023/11/04 09:08:14;;;;;;;0.80;0.50;;;15.30;88.50;;;;;;5079853;28;20033;-83
2023/11/04 09:10:40;;;;;;;1.30;0.60;;;15.30;88.20;;;;;;5079947;28;20052;-83
2023/11/04 09:13:06;;;;;;;0.82;0.50;;;15.40;88.10;;;;;;5082321;28;20036;-81
2023/11/04 09:15:34;;;;;;;0.93;0.50;;;15.40;88.00;;;;;;5081804;28;20716;-82
2023/11/04 09:17:59;;;;;;;1.42;0.43;;;15.30;87.80;;;;;;5083177;28;20059;-82
2023/11/04 09:20:25;;;;;;;1.23;0.60;;;16.30;88.00;;;;;;5083046;28;20035;-83
2023/11/04 09:22:50;;;;;;;1.00;0.60;;;15.50;87.50;;;;;;5083830;28;20527;-83
2023/11/04 09:25:16;;;;;;;1.17;0.50;;;15.60;87.50;;;;;;5081835;28;20032;-82
2023/11/04 09:27:41;;;;;;;0.80;0.60;;;15.60;87.50;;;;;;5081376;28;20033;-82
2023/11/04 09:30:08;;;;;;;1.27;0.60;;;15.70;87.40;;;;;;5081879;28;20032;-83
2023/11/04 09:32:34;;;;;;;1.52;0.80;;;15.70;87.30;;;;;;5081550;28;20041;-83
2023/11/04 09:34:59;;;;;;;0.50;0.50;;;15.60;87.60;;;;;;5083357;28;20108;-79
2023/11/04 09:37:25;;;;;;;1.23;0.50;;;15.60;87.80;;;;;;5082923;28;20036;-83
2023/11/04 09:39:51;;;;;;;1.02;0.60;;;15.60;87.70;;;;;;5078052;28;20037;-82
2023/11/04 09:42:17;;;;;;;0.50;0.40;;;15.50;88.00;;;;;;5061956;28;20494;-79
2023/11/04 09:44:42;;;;;;;0.95;0.57;;;15.50;88.20;;;;;;5060246;28;20048;-82
2023/11/04 09:47:08;;;;;;;0.57;0.40;;;15.50;88.60;;;;;;5060210;28;20437;-82
2023/11/04 09:49:34;;;;;;;1.00;0.50;;;15.40;88.80;;;;;;5060435;28;20028;-82
2023/11/04 09:52:01;;;;;;;1.10;0.50;;;15.40;89.00;;;;;;5060288;28;20028;-82
2023/11/04 09:54:28;;;;;;;1.15;0.52;;;15.30;89.10;;;;;;5060743;28;20395;-82
2023/11/04 09:56:56;;;;;;;1.17;0.60;;;15.30;89.00;;;;;;5061820;28;20153;-83
2023/11/04 09:59:22;;;;;;;0.93;0.40;;;15.40;88.90;;;;;;5071228;28;20491;-82
2023/11/04 10:01:48;;;;;;;0.50;0.40;;;15.40;88.80;;;;;;5061995;28;20506;-83
2023/11/04 10:04:13;;;;;;;0.50;0.50;;;15.40;88.70;;;;;;5076538;28;20109;-83
2023/11/04 10:06:39;;;;;;;0.30;0.30;;;15.40;88.60;;;;;;5076928;28;20029;-82
2023/11/04 10:09:04;;;;;;;0.77;0.50;;;15.40;88.60;;;;;;5076659;28;20029;-82
2023/11/04 10:11:31;;;;;;;1.05;0.60;;;15.40;88.40;;;;;;5076349;28;20025;-82
2023/11/04 10:13:56;;;;;;;0.85;0.50;;;15.40;88.40;;;;;;5077276;28;20029;-82
2023/11/04 10:16:22;;;;;;;0.98;0.50;;;15.40;88.70;;;;;;5060209;28;20466;-81
2023/11/04 10:18:49;;;;;;;0.80;0.50;;;15.40;88.60;;;;;;5076658;28;20071;-82
2023/11/04 10:21:16;;;;;;;1.52;0.50;;;15.40;88.30;;;;;;5076916;28;20037;-82
2023/11/04 10:23:41;;;;;;;1.20;0.57;;;15.40;88.30;;;;;;5061476;28;20102;-83
2023/11/04 10:26:07;;;;;;;0.82;0.40;;;15.40;88.40;;;;;;5076443;28;20029;-81
2023/11/04 10:28:35;;;;;;;0.85;0.52;;;15.40;88.40;;;;;;5074251;28;21049;-80
2023/11/04 10:31:05;;;;;;;0.85;0.60;;;15.40;88.40;;;;;;5058360;28;20022;-80
2023/11/04 10:33:39;;;;;;;0.52;0.40;;;15.40;88.50;;;;;;5059989;28;20044;-81
2023/11/04 10:36:08;;;;;;;1.67;0.50;;;15.40;88.60;;;;;;5073429;28;20029;-81
2023/11/04 10:38:37;;;;;;;0.60;0.50;;;15.40;88.70;;;;;;5079534;28;20025;-82
2023/11/04 10:41:05;;;;;;;1.48;0.70;;;15.40;88.60;;;;;;5081444;28;20028;-81
2023/11/04 10:43:46;;;;;;;2.67;0.95;;;15.40;88.50;;;;;;5079625;28;20037;-82
2023/11/04 10:46:17;;;;;;;;;;;15.30;87.50;;;;;;5079983;28;20081;-81
2023/11/04 10:48:54;;;;;;;3.50;0.70;;;15.30;87.40;;;;;;5081109;28;19916;-83
2023/11/04 10:51:46;;;;;;;2.03;0.70;;;15.30;87.00;;;;;;5080334;28;20033;-82
2023/11/04 10:54:32;;;;;;;2.95;0.70;;;15.40;87.60;;;;;;5079253;28;20021;-82
2023/11/04 10:57:14;;;;;;;3.65;0.80;;;15.30;87.50;;;;;;5079845;28;20113;-82
2023/11/04 11:00:15;;;;;;;5.80;1.00;;;15.30;87.40;;;;;;5080253;28;20020;-82
2023/11/04 11:02:44;;;;;;;3.53;0.82;;;15.30;87.30;;;;;;5079068;28;20386;-82
2023/11/04 11:05:11;;;;;;;3.97;0.90;;;15.40;87.10;;;;;;5079596;28;20033;-82
2023/11/04 11:07:44;;;;;;;2.28;0.70;;;15.40;87.20;;;;;;5077564;28;20026;-83
2023/11/04 11:10:15;;;;;;;2.33;0.63;;;15.40;87.20;;;;;;5077932;28;20024;-82
2023/11/04 11:12:46;;;;;;;1.67;0.60;;;15.40;87.30;;;;;;5077927;28;20028;-81
2023/11/04 11:15:12;;;;;;;3.55;0.70;;;15.40;87.20;;;;;;5077305;28;20398;-83
2023/11/04 11:17:38;;;;;;;1.92;0.70;;;15.40;87.20;;;;;;5078967;28;20032;-82
2023/11/04 11:20:09;;;;;;;3.80;0.70;;;15.40;87.20;;;;;;5076958;28;20024;-82
2023/11/04 11:22:35;;;;;;;2.75;0.68;;;15.40;87.20;;;;;;5079009;28;20021;-81
2023/11/04 11:25:01;;;;;;;0.90;0.60;;;15.50;87.20;;;;;;5077052;28;20035;-82
2023/11/04 11:27:26;;;;;;;2.22;0.82;;;15.40;87.10;;;;;;5077639;28;20024;-82
2023/11/04 11:29:53;;;;;;;3.88;0.68;;;15.40;87.40;;;;;;5077527;28;20032;-82
2023/11/04 11:32:19;;;;;;;1.48;0.60;;;15.30;87.40;;;;;;5077843;28;20051;-81
2023/11/04 11:34:56;;;;;;;1.33;0.68;;;15.40;87.60;;;;;;5076988;28;20055;-83
2023/11/04 11:37:25;;;;;;;4.25;0.73;;;15.40;87.80;;;;;;5077817;28;20020;-82
2023/11/04 11:39:52;;;;;;;2.92;0.70;;;15.30;87.80;;;;;;5077509;28;20426;-81
2023/11/04 11:42:25;;;;;;;3.03;0.60;;;15.30;88.00;;;;;;5077483;28;20024;-82
2023/11/04 11:44:51;;;;;;;2.40;0.60;;;15.30;87.90;;;;;;5077347;28;20041;-81
2023/11/04 11:47:18;;;;;;;1.40;0.70;;;15.40;87.70;;;;;;5078673;28;20493;-83
2023/11/04 11:49:43;;;;;;;1.00;0.55;;;15.40;87.70;;;;;;5077627;28;20383;-81
2023/11/04 11:52:10;;;;;;;2.58;0.90;;;15.40;87.60;;;;;;5078537;28;20031;-82
2023/11/04 11:54:38;;;;;;;1.38;0.60;;;15.40;87.60;;;;;;5076972;28;20123;-81
2023/11/04 11:57:05;;;;;;;1.08;0.55;;;15.40;87.50;;;;;;5078687;28;20044;-82
2023/11/04 11:59:34;;;;;;;1.90;0.80;;;15.40;87.50;;;;;;5078314;28;20028;-82
2023/11/04 12:01:59;;;;;;;1.80;0.52;;;15.40;87.50;;;;;;5078823;28;20032;-82
2023/11/04 12:04:25;;;;;;;0.75;0.70;;;15.40;87.50;;;;;;5077030;28;20390;-83
2023/11/04 12:06:53;;;;;;;3.00;0.70;;;15.40;87.50;;;;;;5077351;28;20036;-82
2023/11/04 12:09:20;;;;;;;3.53;0.90;;;15.40;87.60;;;;;;5078217;28;20105;-83
2023/11/04 12:11:46;;;;;;;1.35;0.60;;;15.40;87.90;;;;;;5078908;28;20021;-82
2023/11/04 12:14:11;;;;;;;1.95;0.70;;;15.40;87.80;;;;;;5077229;28;20094;-82
2023/11/04 12:16:37;;;;;;;4.28;0.70;;;15.30;87.70;;;;;;5074700;28;20024;-82
2023/11/04 12:19:02;;;;;;;11.98;1.40;;;15.30;87.40;;;;;;5075453;28;20028;-82
2023/11/04 12:21:28;;;;;;;7.93;1.50;;;15.30;83.00;;;;;;5075439;28;20021;-82
2023/11/04 12:23:54;;;;;;;7.43;1.55;;;15.20;81.90;;;;;;5077767;28;20056;-83
2023/11/04 12:26:31;;;;;;;5.30;0.95;;;15.20;83.00;;;;;;5076161;28;20032;-82
2023/11/04 12:28:58;;;;;;;7.65;1.13;;;15.20;82.30;;;;;;5074756;28;20031;-82
2023/11/04 12:31:24;;;;;;;2.88;0.98;;;15.30;82.00;;;;;;5077329;28;20546;-83
2023/11/04 12:33:52;;;;;;;23.58;2.25;;;15.30;81.90;;;;;;5074815;28;20055;-84
2023/11/04 12:36:17;;;;;;;17.15;2.00;;;15.40;82.20;;;;;;5075024;28;20025;-83
2023/11/04 12:38:43;;;;;;;58.92;5.43;;;15.30;80.20;;;;;;5074668;28;20228;-82
2023/11/04 12:41:10;;;;;;;28.90;3.25;;;15.30;79.90;;;;;;5076078;28;20093;-83
2023/11/04 12:43:37;;;;;;;38.42;3.22;;;15.30;80.60;;;;;;5072840;28;20775;-82